createdAt,value
2017-11-14T00:00:59.298Z,4.7
2017-11-14T00:01:58.807Z,4.1
2017-11-14T00:02:58.728Z,4.3
2017-11-14T00:03:58.571Z,4.8
2017-11-14T00:04:58.784Z,5.2
2017-11-14T00:05:58.685Z,4.3
2017-11-14T00:06:58.467Z,4.4
2017-11-14T00:07:58.707Z,4.0
2017-11-14T00:08:58.986Z,3.7
2017-11-14T00:09:59.064Z,3.5
2017-11-14T00:10:59.657Z,4.4
2017-11-14T00:11:59.130Z,3.9
2017-11-14T00:12:59.045Z,4.3
2017-11-14T00:13:58.972Z,4.7
2017-11-14T00:14:58.970Z,3.9
2017-11-14T00:15:58.810Z,3.9
2017-11-14T00:16:58.986Z,4.0
2017-11-14T00:17:59.020Z,3.9
2017-11-14T00:18:58.790Z,3.6
2017-11-14T00:19:59.122Z,3.9
2017-11-14T00:29:06.955Z,3.9
2017-11-14T00:29:18.746Z,3.9
2017-11-14T00:30:22.691Z,4.0
2017-11-14T00:31:18.720Z,3.5
2017-11-14T00:32:18.797Z,3.7
2017-11-14T00:33:18.571Z,3.5
2017-11-14T00:34:18.762Z,3.4
2017-11-14T00:35:18.775Z,3.3
2017-11-14T00:36:18.743Z,3.5
2017-11-14T00:37:18.505Z,3.3
2017-11-14T00:38:18.618Z,3.7
2017-11-14T00:39:18.807Z,3.3
2017-11-14T00:40:18.635Z,3.4
2017-11-14T00:41:18.532Z,3.1
2017-11-14T00:42:18.814Z,3.2
2017-11-14T00:43:18.753Z,3.4
2017-11-14T00:44:18.843Z,3.8
2017-11-14T00:45:18.914Z,3.2
2017-11-14T00:46:18.814Z,3.2
2017-11-14T00:47:19.448Z,3.2
2017-11-14T00:48:18.823Z,3.4
2017-11-14T00:49:18.692Z,3.3
2017-11-14T00:50:20.091Z,3.1
2017-11-14T00:51:18.535Z,3.4
2017-11-14T00:52:18.835Z,3.4
2017-11-14T00:53:18.698Z,3.1
2017-11-14T00:54:18.477Z,3.1
2017-11-14T00:55:20.916Z,3.4
2017-11-14T00:56:18.644Z,3.3
2017-11-14T00:57:18.737Z,3.2
2017-11-14T00:58:18.790Z,3.2
2017-11-14T00:59:18.741Z,2.9
2017-11-14T01:00:19.175Z,3.1
2017-11-14T01:01:18.836Z,3.1
2017-11-14T01:02:20.788Z,3.3
2017-11-14T01:03:20.792Z,3.0
2017-11-14T01:04:19.743Z,3.0
2017-11-14T01:05:20.104Z,3.2
2017-11-14T01:06:18.847Z,3.3
2017-11-14T01:07:18.930Z,3.1
2017-11-14T01:08:18.903Z,2.7
2017-11-14T01:09:18.706Z,2.8
2017-11-14T01:10:19.394Z,2.9
2017-11-14T01:11:18.786Z,3.2
2017-11-14T01:12:18.866Z,2.9
2017-11-14T01:13:18.770Z,3.1
2017-11-14T01:14:18.800Z,2.9
2017-11-14T01:15:19.971Z,2.8
2017-11-14T01:16:18.624Z,3.1
2017-11-14T01:17:18.882Z,2.5
2017-11-14T01:18:18.605Z,3.1
2017-11-14T01:19:18.730Z,3.1
2017-11-14T01:20:18.887Z,3.2
2017-11-14T01:21:18.850Z,2.7
2017-11-14T01:22:18.870Z,2.8
2017-11-14T01:23:18.695Z,2.8
2017-11-14T01:24:18.864Z,3.1
2017-11-14T01:25:18.879Z,2.9
2017-11-14T01:26:18.804Z,2.9
2017-11-14T01:27:18.821Z,3.0
2017-11-14T01:28:18.660Z,2.8
2017-11-14T01:29:18.932Z,2.8
2017-11-14T01:30:18.923Z,2.6
2017-11-14T01:31:18.831Z,2.6
2017-11-14T01:33:59.790Z,2.6
2017-11-14T01:34:12.702Z,2.8
2017-11-14T01:35:12.598Z,2.6
2017-11-14T01:36:12.386Z,2.7
2017-11-14T01:37:12.313Z,2.5
2017-11-14T01:38:12.892Z,2.7
2017-11-14T01:39:12.334Z,2.8
2017-11-14T01:40:12.375Z,2.8
2017-11-14T01:41:12.356Z,2.7
2017-11-14T01:42:13.867Z,2.5
2017-11-14T01:43:16.124Z,2.7
2017-11-14T01:44:12.980Z,2.6
2017-11-14T01:45:12.497Z,2.5
2017-11-14T01:46:12.341Z,2.5
2017-11-14T01:47:12.311Z,2.7
2017-11-14T01:48:12.380Z,2.7
2017-11-14T01:49:12.192Z,2.4
2017-11-14T01:50:12.439Z,2.5
2017-11-14T01:51:12.313Z,2.5
2017-11-14T01:52:12.414Z,2.6
2017-11-14T01:54:04.813Z,2.5
2017-11-14T01:54:15.388Z,2.5
2017-11-14T01:55:15.156Z,2.8
2017-11-14T01:56:15.344Z,2.7
2017-11-14T01:57:15.201Z,2.5
2017-11-14T01:58:16.598Z,2.6
2017-11-14T01:59:15.386Z,2.5
2017-11-14T02:00:15.322Z,2.5
2017-11-14T02:01:15.439Z,2.5
2017-11-14T02:02:15.388Z,2.5
2017-11-14T02:03:15.800Z,2.5
2017-11-14T02:05:27.876Z,2.7
2017-11-14T02:06:27.717Z,2.6
2017-11-14T02:07:28.337Z,2.5
2017-11-14T02:08:27.861Z,2.7
2017-11-14T02:09:27.783Z,2.7
2017-11-14T02:10:27.792Z,2.5
2017-11-14T02:11:27.847Z,2.3
2017-11-14T02:12:27.564Z,2.7
2017-11-14T02:13:28.987Z,2.3
2017-11-14T02:14:27.799Z,2.5
2017-11-14T02:26:25.723Z,2.3
2017-11-14T02:27:25.854Z,2.6
2017-11-14T02:28:27.208Z,2.4
2017-11-14T02:29:25.790Z,2.5
2017-11-14T02:30:25.886Z,2.5
2017-11-14T02:31:25.607Z,2.3
2017-11-14T02:32:25.662Z,2.4
2017-11-14T02:33:25.710Z,2.5
2017-11-14T02:34:26.166Z,2.2
2017-11-14T02:35:26.171Z,2.4
2017-11-14T02:36:42.026Z,2.4
2017-11-14T02:37:25.758Z,2.1
2017-11-14T02:38:25.584Z,2.5
2017-11-14T02:39:25.865Z,2.4
2017-11-14T02:40:25.817Z,2.4
2017-11-14T02:41:25.620Z,2.3
2017-11-14T02:42:25.872Z,2.4
2017-11-14T02:43:25.637Z,2.1
2017-11-14T02:44:25.867Z,2.4
2017-11-14T02:45:25.951Z,2.1
2017-11-14T02:46:25.788Z,2.2
2017-11-14T02:47:26.472Z,2.2
2017-11-14T02:48:25.856Z,2.0
2017-11-14T02:49:25.703Z,2.3
2017-11-14T02:50:25.815Z,2.4
2017-11-14T02:51:25.920Z,2.2
2017-11-14T02:52:25.646Z,2.2
2017-11-14T02:53:25.842Z,1.9
2017-11-14T02:54:26.316Z,2.1
2017-11-14T02:55:26.805Z,2.5
2017-11-14T02:56:25.687Z,2.2
2017-11-14T02:57:25.697Z,2.4
2017-11-14T02:58:26.572Z,2.2
2017-11-14T02:59:25.907Z,2.0
2017-11-14T03:00:25.624Z,2.3
2017-11-14T03:01:25.832Z,1.9
2017-11-14T03:02:26.353Z,2.0
2017-11-14T03:03:25.751Z,2.1
2017-11-14T03:04:27.130Z,2.2
2017-11-14T03:05:36.609Z,1.9
2017-11-14T03:06:25.921Z,1.9
2017-11-14T03:07:25.933Z,2.1
2017-11-14T03:08:25.894Z,2.3
2017-11-14T03:09:25.818Z,2.1
2017-11-14T03:10:25.946Z,1.8
2017-11-14T03:11:25.968Z,1.9
2017-11-14T03:12:25.780Z,1.9
2017-11-14T03:13:25.841Z,2.2
2017-11-14T03:14:26.343Z,2.0
2017-11-14T03:15:54.218Z,1.9
2017-11-14T03:16:25.714Z,1.9
2017-11-14T03:17:25.882Z,1.9
2017-11-14T03:18:25.972Z,1.9
2017-11-14T03:19:25.887Z,1.9
2017-11-14T03:20:25.867Z,1.8
2017-11-14T03:21:25.906Z,2.0
2017-11-14T03:22:25.938Z,1.9
2017-11-14T03:23:26.396Z,2.0
2017-11-14T03:24:26.865Z,2.2
2017-11-14T03:25:25.674Z,2.0
2017-11-14T03:26:26.339Z,2.3
2017-11-14T03:27:25.968Z,2.0
2017-11-14T03:28:25.951Z,2.1
2017-11-14T03:29:25.798Z,1.9
2017-11-14T03:30:25.874Z,1.8
2017-11-14T03:31:25.934Z,1.7
2017-11-14T03:32:25.983Z,1.9
2017-11-14T03:33:25.945Z,2.0
2017-11-14T03:34:27.029Z,1.8
2017-11-14T03:35:25.958Z,1.8
2017-11-14T03:36:26.120Z,2.0
2017-11-14T03:37:25.917Z,2.0
2017-11-14T03:38:25.965Z,1.7
2017-11-14T03:39:25.898Z,1.9
2017-11-14T03:40:25.911Z,2.3
2017-11-14T03:41:25.712Z,1.8
2017-11-14T03:42:25.884Z,1.9
2017-11-14T03:43:25.963Z,2.0
2017-11-14T03:44:26.552Z,1.9
2017-11-14T03:45:25.764Z,1.9
2017-11-14T03:46:26.724Z,2.0
2017-11-14T03:47:25.930Z,2.3
2017-11-14T03:48:25.970Z,1.9
2017-11-14T03:49:25.956Z,1.8
2017-11-14T03:50:25.648Z,1.9
2017-11-14T03:51:25.837Z,1.9
2017-11-14T03:52:26.577Z,1.9
2017-11-14T03:53:25.640Z,2.0
2017-11-14T03:54:29.633Z,1.8
2017-11-14T03:55:25.913Z,1.8
2017-11-14T03:56:25.693Z,2.1
2017-11-14T03:57:25.533Z,1.9
2017-11-14T03:58:25.754Z,2.0
2017-11-14T03:59:25.535Z,2.0
2017-11-14T04:00:25.720Z,1.9
2017-11-14T04:01:26.254Z,1.9
2017-11-14T04:02:25.502Z,2.0
2017-11-14T04:03:25.716Z,2.0
2017-11-14T04:04:37.773Z,1.9
2017-11-14T04:05:25.751Z,1.8
2017-11-14T04:06:25.904Z,2.1
2017-11-14T04:07:25.746Z,2.0
2017-11-14T04:08:25.813Z,1.7
2017-11-14T04:09:25.781Z,1.8
2017-11-14T04:10:26.483Z,1.9
2017-11-14T04:11:25.761Z,1.8
2017-11-14T04:12:25.530Z,1.8
2017-11-14T04:13:25.757Z,1.7
2017-11-14T04:16:07.045Z,1.8
2017-11-14T04:16:18.347Z,1.8
2017-11-14T04:17:18.376Z,1.9
2017-11-14T04:18:18.175Z,1.9
2017-11-14T04:19:18.375Z,1.8
2017-11-14T04:20:18.799Z,1.7
2017-11-14T04:21:19.041Z,1.7
2017-11-14T04:22:19.015Z,1.8
2017-11-14T04:23:18.124Z,1.9
2017-11-14T04:24:19.425Z,1.9
2017-11-14T04:25:21.510Z,1.8
2017-11-14T04:26:18.318Z,1.7
2017-11-14T04:27:18.950Z,1.6
2017-11-14T04:28:18.433Z,1.8
2017-11-14T04:29:18.374Z,1.5
2017-11-14T04:30:18.364Z,1.9
2017-11-14T04:31:18.361Z,1.6
2017-11-14T04:32:18.449Z,1.8
2017-11-14T04:33:18.397Z,1.8
2017-11-14T04:34:18.395Z,1.8
2017-11-14T04:36:57.876Z,1.9
2017-11-14T04:37:13.146Z,1.9
2017-11-14T04:38:14.139Z,1.8
2017-11-14T04:39:14.440Z,1.6
2017-11-14T04:40:14.345Z,1.9
2017-11-14T04:41:14.337Z,1.7
2017-11-14T04:42:14.396Z,1.7
2017-11-14T04:43:14.176Z,1.6
2017-11-14T04:44:15.391Z,1.6
2017-11-14T04:45:14.352Z,1.5
2017-11-14T04:47:27.441Z,1.7
2017-11-14T04:48:26.602Z,1.4
2017-11-14T04:49:26.852Z,1.7
2017-11-14T04:50:26.682Z,1.8
2017-11-14T04:51:26.809Z,1.8
2017-11-14T04:52:26.601Z,1.6
2017-11-14T04:53:28.063Z,1.5
2017-11-14T04:54:26.916Z,1.7
2017-11-14T04:55:26.849Z,1.5
2017-11-14T04:56:27.487Z,1.5
2017-11-14T04:57:26.818Z,1.6
2017-11-14T04:58:26.639Z,1.7
2017-11-14T04:59:26.661Z,1.6
2017-11-14T05:00:26.634Z,1.5
2017-11-14T05:01:26.851Z,1.7
2017-11-14T05:02:26.887Z,1.6
2017-11-14T05:03:26.905Z,1.6
2017-11-14T05:04:27.462Z,1.5
2017-11-14T05:05:26.885Z,1.7
2017-11-14T05:06:26.879Z,1.6
2017-11-14T05:07:26.655Z,1.5
2017-11-14T05:08:26.640Z,1.7
2017-11-14T05:09:26.892Z,1.6
2017-11-14T05:10:26.859Z,1.6
2017-11-14T05:11:26.906Z,1.2
2017-11-14T05:12:26.908Z,1.7
2017-11-14T05:13:26.928Z,1.5
2017-11-14T05:14:27.068Z,1.7
2017-11-14T05:15:26.938Z,1.5
2017-11-14T05:16:26.871Z,1.5
2017-11-14T05:17:27.936Z,1.6
2017-11-14T05:18:27.168Z,1.5
2017-11-14T05:19:27.185Z,1.6
2017-11-14T05:20:27.130Z,1.6
2017-11-14T05:21:27.155Z,1.6
2017-11-14T05:22:27.193Z,1.6
2017-11-14T05:23:29.357Z,1.4
2017-11-14T05:24:27.141Z,1.6
2017-11-14T05:25:27.179Z,1.5
2017-11-14T05:26:27.252Z,1.5
2017-11-14T05:27:27.225Z,1.6
2017-11-14T05:28:27.222Z,1.7
2017-11-14T05:29:27.177Z,1.3
2017-11-14T05:30:26.817Z,1.4
2017-11-14T05:31:27.173Z,1.3
2017-11-14T05:32:27.086Z,1.5
2017-11-14T05:33:27.801Z,1.5
2017-11-14T05:34:27.156Z,1.4
2017-11-14T05:35:27.251Z,1.2
2017-11-14T05:36:27.089Z,1.3
2017-11-14T05:37:27.234Z,1.5
2017-11-14T05:38:27.561Z,1.4
2017-11-14T05:39:27.066Z,1.5
2017-11-14T05:40:27.241Z,1.4
2017-11-14T05:41:26.946Z,1.4
2017-11-14T05:42:27.197Z,1.3
2017-11-14T05:43:37.236Z,1.2
2017-11-14T05:44:27.305Z,1.6
2017-11-14T05:45:27.242Z,1.4
2017-11-14T05:46:32.061Z,1.5
2017-11-14T05:47:27.310Z,1.5
2017-11-14T05:48:29.541Z,1.4
2017-11-14T05:49:27.896Z,1.4
2017-11-14T05:50:29.068Z,1.6
2017-11-14T05:51:28.548Z,1.5
2017-11-14T05:52:29.516Z,1.5
2017-11-14T05:53:32.060Z,1.4
2017-11-14T05:54:30.068Z,1.4
2017-11-14T05:55:29.207Z,1.5
2017-11-14T05:56:32.527Z,1.6
2017-11-14T05:57:28.626Z,1.5
2017-11-14T05:58:28.263Z,1.5
2017-11-14T05:59:27.653Z,1.5
2017-11-14T06:00:29.552Z,1.5
2017-11-14T06:01:29.628Z,1.4
2017-11-14T06:02:27.225Z,1.3
2017-11-14T06:03:28.648Z,2.0
2017-11-14T06:04:28.985Z,1.5
2017-11-14T06:05:27.701Z,2.5
2017-11-14T06:06:26.937Z,2.8
2017-11-14T06:07:27.233Z,2.2
2017-11-14T06:08:27.194Z,2.5
2017-11-14T06:09:27.065Z,2.5
2017-11-14T06:10:26.969Z,3.3
2017-11-14T06:11:27.164Z,3.3
2017-11-14T06:12:27.085Z,2.8
2017-11-14T06:13:26.872Z,3.3
2017-11-14T06:14:27.478Z,3.5
2017-11-14T06:15:27.075Z,3.5
2017-11-14T06:16:27.079Z,3.5
2017-11-14T06:17:26.891Z,3.5
2017-11-14T06:18:27.108Z,3.5
2017-11-14T06:19:27.116Z,3.6
2017-11-14T06:20:27.803Z,3.8
2017-11-14T06:21:27.122Z,3.5
2017-11-14T06:22:27.121Z,3.5
2017-11-14T06:23:27.224Z,3.3
2017-11-14T06:24:27.111Z,3.6
2017-11-14T06:25:27.725Z,3.7
2017-11-14T06:26:27.070Z,3.5
2017-11-14T06:27:26.911Z,3.4
2017-11-14T06:28:27.186Z,3.5
2017-11-14T06:29:55.328Z,3.4
2017-11-14T06:30:27.201Z,3.4
2017-11-14T06:31:27.253Z,3.3
2017-11-14T06:32:28.492Z,3.3
2017-11-14T06:33:27.132Z,3.2
2017-11-14T06:34:55.765Z,3.3
2017-11-14T06:35:27.255Z,3.2
2017-11-14T06:36:27.155Z,3.3
2017-11-14T06:37:26.978Z,3.3
2017-11-14T06:38:27.102Z,3.2
2017-11-14T06:39:27.618Z,2.8
2017-11-14T06:41:40.298Z,2.9
2017-11-14T06:42:40.986Z,3.3
2017-11-14T06:43:40.432Z,3.0
2017-11-14T06:44:41.347Z,3.0
2017-11-14T06:45:40.285Z,3.0
2017-11-14T06:46:40.368Z,2.8
2017-11-14T06:47:40.347Z,2.9
2017-11-14T06:48:40.441Z,3.0
2017-11-14T06:49:40.334Z,2.8
2017-11-14T06:50:40.346Z,3.0
2017-11-14T06:51:40.230Z,3.0
2017-11-14T06:52:40.354Z,2.8
2017-11-14T06:53:40.352Z,2.8
2017-11-14T06:54:40.333Z,2.7
2017-11-14T06:55:40.210Z,2.8
2017-11-14T06:56:40.752Z,2.8
2017-11-14T06:57:40.478Z,2.9
2017-11-14T06:58:41.173Z,2.9
2017-11-14T06:59:40.376Z,2.5
2017-11-14T07:00:41.234Z,2.7
2017-11-14T07:01:41.816Z,2.6
2017-11-14T07:02:40.464Z,2.4
2017-11-14T07:03:41.719Z,2.6
2017-11-14T07:04:40.472Z,2.6
2017-11-14T07:05:40.549Z,2.6
2017-11-14T07:06:40.444Z,2.7
2017-11-14T07:07:40.202Z,2.8
2017-11-14T07:08:40.204Z,2.6
2017-11-14T07:09:41.096Z,2.7
2017-11-14T07:10:40.243Z,2.6
2017-11-14T07:11:41.046Z,2.7
2017-11-14T07:12:40.482Z,2.4
2017-11-14T07:13:41.084Z,2.6
2017-11-14T07:14:40.443Z,2.3
2017-11-14T07:15:40.291Z,2.5
2017-11-14T07:16:40.498Z,2.6
2017-11-14T07:17:40.274Z,2.7
2017-11-14T07:18:42.034Z,2.3
2017-11-14T07:19:40.509Z,2.8
2017-11-14T07:20:40.549Z,2.5
2017-11-14T07:21:40.397Z,2.4
2017-11-14T07:22:57.913Z,2.4
2017-11-14T07:23:47.901Z,2.5
2017-11-14T07:26:40.957Z,2.4
2017-11-14T07:27:21.527Z,2.4
2017-11-14T07:29:19.939Z,2.4
2017-11-14T07:29:36.848Z,2.4
2017-11-14T07:30:34.517Z,2.1
2017-11-14T07:31:31.598Z,2.6
2017-11-14T07:32:45.408Z,2.4
2017-11-14T07:33:49.346Z,2.4
2017-11-14T07:34:38.538Z,2.2
2017-11-14T07:36:28.778Z,2.2
2017-11-14T07:36:53.987Z,2.2
2017-11-14T07:37:54.563Z,2.2
2017-11-14T07:38:49.577Z,1.9
2017-11-14T07:39:48.702Z,2.2
2017-11-14T07:40:54.680Z,2.3
2017-11-14T07:41:44.751Z,2.3
2017-11-14T07:42:42.374Z,1.9
2017-11-14T07:43:49.244Z,2.2
2017-11-14T07:44:45.715Z,2.1
2017-11-14T07:45:43.065Z,2.2
2017-11-14T07:46:42.162Z,2.2
2017-11-14T07:47:44.852Z,2.2
2017-11-14T07:48:43.805Z,2.6
2017-11-14T07:49:40.812Z,1.9
2017-11-14T07:51:15.681Z,2.1
2017-11-14T07:51:43.538Z,2.0
2017-11-14T07:52:41.809Z,1.9
2017-11-14T07:53:40.052Z,2.1
2017-11-14T07:54:40.145Z,2.4
2017-11-14T07:55:40.233Z,1.8
2017-11-14T07:57:01.840Z,1.8
2017-11-14T07:58:22.016Z,1.9
2017-11-14T07:58:50.438Z,1.7
2017-11-14T08:00:00.600Z,1.9
2017-11-14T08:00:48.181Z,2.9
2017-11-14T08:01:48.379Z,1.9
2017-11-14T08:03:00.072Z,1.9
2017-11-14T08:03:45.660Z,1.8
2017-11-14T08:05:03.291Z,1.8
2017-11-14T08:06:00.060Z,1.8
2017-11-14T08:06:49.614Z,1.8
2017-11-14T08:07:53.807Z,2.0
2017-11-14T08:08:56.980Z,1.9
2017-11-14T08:09:47.717Z,2.1
2017-11-14T08:10:40.211Z,3.0
2017-11-14T08:12:21.862Z,2.7
2017-11-14T08:13:52.908Z,1.8
2017-11-14T08:14:42.685Z,3.4
2017-11-14T08:16:19.362Z,2.0
2017-11-14T08:17:42.974Z,3.4
2017-11-14T08:18:42.395Z,1.6
2017-11-14T08:20:18.416Z,3.0
2017-11-14T08:22:30.461Z,2.7
2017-11-14T08:23:03.579Z,2.0
2017-11-14T08:23:45.541Z,2.1
2017-11-14T08:24:51.288Z,2.8
2017-11-14T08:25:46.592Z,3.6
2017-11-14T08:27:14.924Z,5.7
2017-11-14T08:27:50.278Z,4.1
2017-11-14T08:28:51.861Z,4.1
2017-11-14T08:29:54.104Z,4.1
2017-11-14T08:30:46.938Z,4.1
2017-11-14T08:33:17.011Z,4.7
2017-11-14T08:34:15.238Z,4.8
2017-11-14T08:35:17.443Z,4.8
2017-11-14T08:36:44.210Z,4.2
2017-11-14T08:37:07.490Z,4.2
2017-11-14T08:38:07.716Z,4.0
2017-11-14T08:39:12.801Z,3.4
2017-11-14T08:40:32.625Z,3.8
2017-11-14T08:41:27.632Z,3.2
2017-11-14T08:42:37.607Z,4.1
2017-11-14T08:44:07.696Z,3.0
2017-11-14T08:46:10.439Z,3.0
2017-11-14T08:47:47.448Z,2.8
2017-11-14T08:49:30.899Z,3.3
2017-11-14T08:51:36.776Z,2.2
2017-11-14T08:53:28.583Z,2.5
2017-11-14T08:55:30.254Z,2.8
2017-11-14T08:57:27.472Z,2.0
2017-11-14T08:59:27.643Z,2.9
2017-11-14T09:01:42.209Z,3.4
2017-11-14T09:03:24.656Z,3.2
2017-11-14T09:05:25.033Z,2.0
2017-11-14T09:07:18.467Z,1.9
2017-11-14T09:10:16.009Z,1.6
2017-11-14T09:12:21.168Z,3.1
2017-11-14T09:13:47.162Z,2.4
2017-11-14T09:15:44.589Z,1.5
2017-11-14T09:17:22.652Z,1.6
2017-11-14T09:19:05.146Z,1.8
2017-11-14T09:19:41.909Z,1.8
2017-11-14T09:20:40.720Z,1.8
2017-11-14T09:21:59.526Z,2.2
2017-11-14T09:22:34.076Z,1.7
2017-11-14T09:24:13.747Z,3.1
2017-11-14T09:25:09.311Z,1.7
2017-11-14T09:26:35.147Z,2.2
2017-11-14T09:30:00.377Z,3.0
2017-11-14T09:30:24.332Z,1.6
2017-11-14T09:31:23.865Z,1.7
2017-11-14T09:32:31.757Z,3.7
2017-11-14T09:33:22.477Z,2.5
2017-11-14T09:34:34.735Z,2.0
2017-11-14T09:36:00.285Z,2.8
2017-11-14T09:36:28.077Z,2.1
2017-11-14T09:37:50.071Z,2.5
2017-11-14T09:38:26.661Z,1.5
2017-11-14T09:39:53.561Z,1.8
2017-11-14T09:41:04.080Z,1.4
2017-11-14T09:41:48.473Z,1.9
2017-11-14T09:43:05.241Z,3.1
2017-11-14T09:43:24.960Z,1.4
2017-11-14T09:45:26.857Z,1.6
2017-11-14T09:45:38.226Z,1.4
2017-11-14T09:46:38.333Z,1.8
2017-11-14T09:47:38.299Z,2.0
2017-11-14T09:48:51.068Z,1.5
2017-11-14T09:49:45.340Z,2.3
2017-11-14T09:50:39.986Z,2.0
2017-11-14T09:51:44.126Z,1.6
2017-11-14T09:52:49.771Z,1.5
2017-11-14T09:53:41.076Z,1.6
2017-11-14T09:54:39.544Z,1.6
2017-11-14T09:55:46.146Z,1.6
2017-11-14T09:56:38.974Z,2.3
2017-11-14T09:57:40.409Z,1.9
2017-11-14T09:59:03.015Z,1.9
2017-11-14T09:59:38.903Z,2.0
2017-11-14T10:00:43.150Z,1.4
2017-11-14T10:01:49.329Z,1.5
2017-11-14T10:03:30.411Z,1.9
2017-11-14T10:05:07.584Z,1.2
2017-11-14T10:06:07.779Z,1.6
2017-11-14T10:07:09.809Z,1.6
2017-11-14T10:07:59.099Z,1.9
2017-11-14T10:09:29.846Z,1.3
2017-11-14T10:10:39.987Z,1.8
2017-11-14T10:12:03.139Z,1.5
2017-11-14T10:13:09.919Z,1.9
2017-11-14T10:13:46.810Z,2.1
2017-11-14T10:14:59.141Z,1.6
2017-11-14T10:15:54.733Z,1.4
2017-11-14T10:16:57.752Z,1.4
2017-11-14T10:18:28.426Z,2.3
2017-11-14T10:19:19.915Z,1.9
2017-11-14T10:20:05.888Z,1.4
2017-11-14T10:21:24.995Z,1.3
2017-11-14T10:22:52.561Z,1.4
2017-11-14T10:23:37.950Z,1.4
2017-11-14T10:24:12.194Z,3.6
2017-11-14T10:25:07.532Z,1.3
2017-11-14T10:26:43.945Z,2.2
2017-11-14T10:27:59.142Z,1.3
2017-11-14T10:28:59.122Z,1.4
2017-11-14T10:30:06.788Z,1.5
2017-11-14T10:30:40.145Z,1.3
2017-11-14T10:31:44.005Z,1.3
2017-11-14T10:33:00.846Z,1.8
2017-11-14T10:33:53.301Z,2.3
2017-11-14T10:34:43.966Z,1.5
2017-11-14T10:35:47.882Z,1.9
2017-11-14T10:36:46.619Z,1.6
2017-11-14T10:37:50.380Z,1.6
2017-11-14T10:38:59.033Z,3.4
2017-11-14T10:39:47.631Z,1.4
2017-11-14T10:41:08.276Z,1.5
2017-11-14T10:42:40.323Z,1.8
2017-11-14T10:43:28.941Z,1.6
2017-11-14T10:44:26.663Z,1.5
2017-11-14T10:45:11.085Z,1.9
2017-11-14T10:46:24.836Z,1.5
2017-11-14T10:47:19.984Z,1.5
2017-11-14T10:48:10.839Z,1.6
2017-11-14T10:49:22.774Z,1.4
2017-11-14T10:50:00.246Z,1.4
2017-11-14T10:51:55.759Z,1.5
2017-11-14T10:53:02.563Z,1.5
2017-11-14T10:53:55.472Z,1.8
2017-11-14T10:54:45.587Z,1.6
2017-11-14T10:55:40.245Z,1.4
2017-11-14T10:57:11.374Z,1.6
2017-11-14T10:58:02.219Z,1.5
2017-11-14T10:59:57.899Z,1.3
2017-11-14T11:00:54.921Z,1.4
2017-11-14T11:02:14.344Z,1.5
2017-11-14T11:02:55.556Z,1.4
2017-11-14T11:08:30.119Z,1.5
2017-11-14T11:10:45.808Z,1.4
2017-11-14T11:11:01.353Z,1.5
2017-11-14T11:11:59.573Z,2.0
2017-11-14T11:12:57.115Z,1.9
2017-11-14T11:13:57.211Z,1.5
2017-11-14T11:14:57.262Z,1.7
2017-11-14T11:17:12.308Z,1.6
2017-11-14T11:18:09.584Z,2.6
2017-11-14T11:19:09.432Z,1.6
2017-11-14T11:20:11.406Z,2.3
2017-11-14T11:21:10.002Z,1.6
2017-11-14T11:22:11.307Z,1.5
2017-11-14T11:23:09.705Z,1.5
2017-11-14T11:24:09.773Z,1.4
2017-11-14T11:25:09.704Z,1.5
2017-11-14T11:26:09.529Z,1.9
2017-11-14T11:27:09.644Z,1.5
2017-11-14T11:28:09.943Z,1.8
2017-11-14T11:29:10.064Z,1.7
2017-11-14T11:30:10.148Z,1.9
2017-11-14T11:31:09.656Z,1.7
2017-11-14T11:32:09.504Z,1.7
2017-11-14T11:33:09.716Z,1.5
2017-11-14T11:34:09.582Z,1.6
2017-11-14T11:35:10.725Z,1.6
2017-11-14T11:36:14.939Z,1.8
2017-11-14T11:37:10.308Z,1.6
2017-11-14T11:38:09.650Z,1.6
2017-11-14T11:39:09.689Z,1.9
2017-11-14T11:40:09.496Z,1.6
2017-11-14T11:41:26.036Z,1.7
2017-11-14T11:42:17.437Z,1.7
2017-11-14T11:43:17.238Z,1.8
2017-11-14T11:46:07.222Z,2.6
2017-11-14T11:46:49.100Z,2.7
2017-11-14T11:47:45.363Z,2.6
2017-11-14T11:48:24.173Z,3.0
2017-11-14T11:49:51.477Z,2.0
2017-11-14T11:50:29.512Z,2.4
2017-11-14T11:51:29.240Z,2.8
2017-11-14T11:52:22.521Z,3.3
2017-11-14T11:53:41.144Z,2.7
2017-11-14T11:54:55.211Z,2.6
2017-11-14T11:55:45.035Z,2.5
2017-11-14T11:56:26.407Z,2.4
2017-11-14T11:57:50.086Z,3.0
2017-11-14T11:58:58.328Z,2.3
2017-11-14T11:59:41.800Z,3.9
2017-11-14T12:00:34.046Z,2.5
2017-11-14T12:01:32.392Z,2.1
2017-11-14T12:02:23.572Z,2.3
2017-11-14T12:03:52.362Z,2.8
2017-11-14T12:04:22.446Z,2.6
2017-11-14T12:05:25.296Z,2.3
2017-11-14T12:06:24.097Z,4.9
2017-11-14T12:07:23.456Z,3.1
2017-11-14T12:08:32.409Z,2.5
2017-11-14T12:09:23.296Z,2.3
2017-11-14T12:10:27.520Z,3.3
2017-11-14T12:11:30.947Z,2.1
2017-11-14T12:12:25.840Z,2.5
2017-11-14T12:13:27.355Z,3.2
2017-11-14T12:15:41.529Z,2.1
2017-11-14T12:16:55.391Z,2.4
2017-11-14T12:17:42.505Z,2.3
2017-11-14T12:18:38.562Z,2.5
2017-11-14T12:19:39.884Z,2.5
2017-11-14T12:20:55.769Z,4.0
2017-11-14T12:21:43.640Z,2.5
2017-11-14T12:22:38.002Z,2.3
2017-11-14T12:23:40.749Z,2.0
2017-11-14T12:24:40.291Z,2.1
2017-11-14T12:25:47.617Z,2.8
2017-11-14T12:26:38.861Z,2.2
2017-11-14T12:27:36.039Z,2.3
2017-11-14T12:28:35.475Z,2.1
2017-11-14T12:29:39.857Z,2.0
2017-11-14T12:30:39.314Z,2.8
2017-11-14T12:31:37.170Z,3.5
2017-11-14T12:32:40.303Z,1.8
2017-11-14T12:33:46.029Z,2.4
2017-11-14T12:34:40.263Z,2.6
2017-11-14T12:35:45.235Z,2.3
2017-11-14T12:36:36.307Z,2.1
2017-11-14T12:37:41.367Z,1.8
2017-11-14T12:38:44.104Z,2.0
2017-11-14T12:39:37.272Z,1.9
2017-11-14T12:40:38.085Z,1.8
2017-11-14T12:41:34.891Z,2.7
2017-11-14T12:42:34.874Z,2.8
2017-11-14T12:43:35.376Z,5.7
2017-11-14T12:44:34.720Z,2.3
2017-11-14T12:45:36.096Z,3.4
2017-11-14T12:46:35.420Z,5.1
2017-11-14T12:47:34.661Z,3.4
2017-11-14T12:48:34.809Z,4.1
2017-11-14T12:49:34.916Z,5.9
2017-11-14T12:50:34.703Z,5.4
2017-11-14T12:51:34.826Z,6.5
2017-11-14T12:52:34.895Z,6.5
2017-11-14T12:53:36.468Z,7.0
2017-11-14T12:54:35.552Z,9.1
2017-11-14T12:55:35.679Z,14.6
2017-11-14T12:56:34.943Z,16.1
2017-11-14T12:57:36.673Z,23.2
2017-11-14T12:58:40.400Z,25.5
2017-11-14T12:59:35.860Z,25.3
2017-11-14T13:00:35.503Z,23.2
2017-11-14T13:01:36.444Z,21.6
2017-11-14T13:02:36.872Z,18.5
2017-11-14T13:03:35.844Z,12.8
2017-11-14T13:04:35.669Z,9.8
2017-11-14T13:05:35.454Z,12.1
2017-11-14T13:06:40.419Z,14.2
2017-11-14T13:07:35.139Z,15.5
2017-11-14T13:08:37.588Z,11.4
2017-11-14T13:09:35.369Z,12.8
2017-11-14T13:10:36.459Z,14.6
2017-11-14T13:11:34.696Z,14.0
2017-11-14T13:12:34.933Z,15.8
2017-11-14T13:13:43.510Z,14.9
2017-11-14T13:14:34.756Z,13.7
2017-11-14T13:15:34.715Z,13.2
2017-11-14T13:16:38.253Z,13.3
2017-11-14T13:17:36.029Z,15.3
2017-11-14T13:18:49.025Z,15.0
2017-11-14T13:19:34.737Z,12.6
2017-11-14T13:20:38.395Z,13.2
2017-11-14T13:21:37.976Z,12.7
2017-11-14T13:22:38.804Z,11.5
2017-11-14T13:23:36.746Z,11.3
2017-11-14T13:24:37.239Z,12.5
2017-11-14T13:25:35.634Z,11.7
2017-11-14T13:26:36.737Z,25.9
2017-11-14T13:27:36.113Z,35.3
2017-11-14T13:28:35.015Z,37.7
2017-11-14T13:29:34.979Z,36.5
2017-11-14T13:31:02.982Z,36.2
2017-11-14T13:31:34.911Z,34.1
2017-11-14T13:32:34.770Z,34.3
2017-11-14T13:33:35.544Z,33.9
2017-11-14T13:34:34.938Z,38.1
2017-11-14T13:35:35.041Z,35.9
2017-11-14T13:36:36.198Z,41.1
2017-11-14T13:37:35.056Z,62.8
2017-11-14T13:38:34.950Z,59.5
2017-11-14T13:39:39.546Z,54.9
2017-11-14T13:40:38.572Z,54.8
2017-11-14T13:41:34.976Z,56.1
2017-11-14T13:42:35.088Z,50.3
2017-11-14T13:43:35.117Z,46.7
2017-11-14T13:44:35.092Z,46.5
2017-11-14T13:45:35.095Z,48.8
2017-11-14T13:46:35.635Z,48.8
2017-11-14T13:47:35.095Z,47.7
2017-11-14T13:48:35.045Z,47.4
2017-11-14T13:49:35.426Z,46.0
2017-11-14T13:50:35.054Z,46.1
2017-11-14T13:51:35.726Z,45.8
2017-11-14T13:52:35.024Z,45.6
2017-11-14T13:53:39.976Z,42.5
2017-11-14T13:54:35.177Z,42.6
2017-11-14T13:55:35.051Z,47.4
2017-11-14T13:56:35.054Z,43.1
2017-11-14T13:57:35.107Z,39.4
2017-11-14T13:58:34.946Z,42.3
2017-11-14T13:59:34.911Z,41.2
2017-11-14T14:00:35.264Z,41.1
2017-11-14T14:01:35.100Z,39.8
2017-11-14T14:02:35.053Z,38.1
2017-11-14T14:03:35.065Z,39.9
2017-11-14T14:04:35.117Z,39.2
2017-11-14T14:05:35.072Z,36.8
2017-11-14T14:06:35.046Z,37.4
2017-11-14T14:07:35.028Z,36.6
2017-11-14T14:08:35.117Z,36.3
2017-11-14T14:09:35.105Z,34.8
2017-11-14T14:10:35.079Z,35.9
2017-11-14T14:11:35.159Z,34.4
2017-11-14T14:12:35.104Z,33.8
2017-11-14T14:13:34.721Z,35.0
2017-11-14T14:14:34.846Z,30.3
2017-11-14T14:15:35.760Z,33.0
2017-11-14T14:16:36.400Z,33.0
2017-11-14T14:17:38.373Z,20.3
2017-11-14T14:18:37.177Z,11.5
2017-11-14T14:19:38.855Z,10.5
2017-11-14T14:20:35.642Z,10.7
2017-11-14T14:21:36.081Z,10.0
2017-11-14T14:22:35.134Z,8.8
2017-11-14T14:23:34.977Z,9.9
2017-11-14T14:24:36.152Z,8.8
2017-11-14T14:25:35.160Z,7.5
2017-11-14T14:26:35.630Z,7.3
2017-11-14T14:27:35.249Z,6.3
2017-11-14T14:28:35.659Z,6.2
2017-11-14T14:29:35.079Z,8.2
2017-11-14T14:30:35.133Z,5.8
2017-11-14T14:31:34.983Z,5.9
2017-11-14T14:32:37.460Z,5.4
2017-11-14T14:33:34.873Z,5.6
2017-11-14T14:34:45.170Z,5.4
2017-11-14T14:35:35.122Z,4.5
2017-11-14T14:36:34.920Z,4.5
2017-11-14T14:37:39.277Z,5.7
2017-11-14T14:38:35.702Z,5.0
2017-11-14T14:39:35.070Z,5.6
2017-11-14T14:40:35.152Z,4.1
2017-11-14T14:41:35.251Z,4.8
2017-11-14T14:42:34.924Z,3.7
2017-11-14T14:43:34.953Z,3.9
2017-11-14T14:44:34.693Z,5.2
2017-11-14T14:45:35.836Z,4.1
2017-11-14T14:46:35.998Z,4.2
2017-11-14T14:47:36.985Z,4.3
2017-11-14T14:48:36.232Z,4.4
2017-11-14T14:49:35.328Z,4.1